Terminal Aerodrome Forecast
Issued by NWS Jackson, MS

Home | Current Version | Previous Version | Text Only | Print | Product List | Glossary On
Versions: 1 2 3 4 5 6 7 8 9 10 11 12 13 14 15 16 17 18 19 20 21 22 23 24 25 26 27 28 29
000
FTUS44 KJAN 060520
TAFMEI
TAF
KMEI 060520Z 0606/0706 00000KT P6SM SKC
     FM060900 20003KT 5SM BR BKN015
     FM061400 24005KT P6SM OVC025
     FM061500 22005KT P6SM SCT030
     FM062000 22007KT P6SM VCTS SCT050CB
     FM070000 19004KT P6SM FEW250=

USA.gov is the U.S. government's official web portal to all federal, state and local government web resources and services.